sensor_id;sensor_type;location;lat;lon;timestamp;P1;durP1;ratioP1;P2;durP2;ratioP2
54683;SDS011;40582;53.100;6.686;2023-03-01T00:01:58;24.80;;;17.45;;
54683;SDS011;40582;53.100;6.686;2023-03-01T00:04:24;18.70;;;15.15;;
54683;SDS011;40582;53.100;6.686;2023-03-01T00:06:50;19.45;;;15.82;;
54683;SDS011;40582;53.100;6.686;2023-03-01T00:09:16;22.77;;;14.23;;
54683;SDS011;40582;53.100;6.686;2023-03-01T00:11:42;18.80;;;14.35;;
54683;SDS011;40582;53.100;6.686;2023-03-01T00:14:08;16.35;;;13.55;;
54683;SDS011;40582;53.100;6.686;2023-03-01T00:16:35;15.15;;;13.65;;
54683;SDS011;40582;53.100;6.686;2023-03-01T00:19:04;28.33;;;18.88;;
54683;SDS011;40582;53.100;6.686;2023-03-01T00:21:31;27.38;;;18.05;;
54683;SDS011;40582;53.100;6.686;2023-03-01T00:23:57;25.55;;;17.30;;
54683;SDS011;40582;53.100;6.686;2023-03-01T00:26:23;25.65;;;17.83;;
54683;SDS011;40582;53.100;6.686;2023-03-01T00:28:49;26.85;;;18.02;;
54683;SDS011;40582;53.100;6.686;2023-03-01T00:31:17;27.80;;;18.50;;
54683;SDS011;40582;53.100;6.686;2023-03-01T00:33:45;21.95;;;17.50;;
54683;SDS011;40582;53.100;6.686;2023-03-01T00:36:12;27.67;;;18.00;;
54683;SDS011;40582;53.100;6.686;2023-03-01T00:38:39;30.88;;;20.17;;
54683;SDS011;40582;53.100;6.686;2023-03-01T00:41:08;58.72;;;22.42;;
54683;SDS011;40582;53.100;6.686;2023-03-01T00:43:39;27.98;;;20.48;;
54683;SDS011;40582;53.100;6.686;2023-03-01T00:46:06;151.80;;;24.08;;
54683;SDS011;40582;53.100;6.686;2023-03-01T00:48:34;336.30;;;27.50;;
54683;SDS011;40582;53.100;6.686;2023-03-01T00:51:07;127.45;;;24.45;;
54683;SDS011;40582;53.100;6.686;2023-03-01T00:53:37;225.88;;;26.25;;
54683;SDS011;40582;53.100;6.686;2023-03-01T00:56:04;196.40;;;26.02;;
54683;SDS011;40582;53.100;6.686;2023-03-01T00:58:31;142.82;;;26.23;;
54683;SDS011;40582;53.100;6.686;2023-03-01T01:00:56;60.17;;;25.02;;
54683;SDS011;40582;53.100;6.686;2023-03-01T01:03:22;218.35;;;26.63;;
54683;SDS011;40582;53.100;6.686;2023-03-01T01:05:50;47.45;;;24.67;;
54683;SDS011;40582;53.100;6.686;2023-03-01T01:08:17;28.55;;;21.83;;
54683;SDS011;40582;53.100;6.686;2023-03-01T01:10:44;31.38;;;24.35;;
54683;SDS011;40582;53.100;6.686;2023-03-01T01:13:10;31.50;;;23.92;;
54683;SDS011;40582;53.100;6.686;2023-03-01T01:15:36;30.52;;;23.75;;
54683;SDS011;40582;53.100;6.686;2023-03-01T01:18:02;29.75;;;23.00;;
54683;SDS011;40582;53.100;6.686;2023-03-01T01:20:28;30.08;;;23.65;;
54683;SDS011;40582;53.100;6.686;2023-03-01T01:22:53;31.33;;;22.55;;
54683;SDS011;40582;53.100;6.686;2023-03-01T01:25:19;25.17;;;19.92;;
54683;SDS011;40582;53.100;6.686;2023-03-01T01:27:45;24.05;;;20.45;;
54683;SDS011;40582;53.100;6.686;2023-03-01T01:30:11;20.80;;;18.38;;
54683;SDS011;40582;53.100;6.686;2023-03-01T01:32:38;18.65;;;15.80;;
54683;SDS011;40582;53.100;6.686;2023-03-01T01:35:04;19.30;;;17.23;;
54683;SDS011;40582;53.100;6.686;2023-03-01T01:37:30;19.33;;;17.23;;
54683;SDS011;40582;53.100;6.686;2023-03-01T01:39:57;21.35;;;17.38;;
54683;SDS011;40582;53.100;6.686;2023-03-01T01:42:24;22.75;;;18.90;;
54683;SDS011;40582;53.100;6.686;2023-03-01T01:45:18;21.58;;;19.27;;
54683;SDS011;40582;53.100;6.686;2023-03-01T01:47:50;22.15;;;18.05;;
54683;SDS011;40582;53.100;6.686;2023-03-01T01:50:17;21.80;;;18.95;;
54683;SDS011;40582;53.100;6.686;2023-03-01T01:52:44;28.27;;;20.58;;
54683;SDS011;40582;53.100;6.686;2023-03-01T01:55:14;30.65;;;21.25;;
54683;SDS011;40582;53.100;6.686;2023-03-01T01:57:46;24.17;;;20.52;;
54683;SDS011;40582;53.100;6.686;2023-03-01T02:02:49;24.30;;;20.30;;
54683;SDS011;40582;53.100;6.686;2023-03-01T02:05:44;24.00;;;19.85;;
54683;SDS011;40582;53.100;6.686;2023-03-01T02:08:13;25.70;;;18.27;;
54683;SDS011;40582;53.100;6.686;2023-03-01T02:10:41;20.58;;;18.20;;
54683;SDS011;40582;53.100;6.686;2023-03-01T02:13:07;20.35;;;17.73;;
54683;SDS011;40582;53.100;6.686;2023-03-01T02:15:34;22.63;;;18.05;;
54683;SDS011;40582;53.100;6.686;2023-03-01T02:18:04;41.25;;;18.42;;
54683;SDS011;40582;53.100;6.686;2023-03-01T02:21:13;84.53;;;21.20;;
54683;SDS011;40582;53.100;6.686;2023-03-01T02:23:37;199.07;;;23.10;;
54683;SDS011;40582;53.100;6.686;2023-03-01T02:26:06;111.93;;;21.75;;
54683;SDS011;40582;53.100;6.686;2023-03-01T02:28:34;141.57;;;23.58;;
54683;SDS011;40582;53.100;6.686;2023-03-01T02:31:03;110.93;;;20.80;;
54683;SDS011;40582;53.100;6.686;2023-03-01T02:33:50;111.55;;;22.10;;
54683;SDS011;40582;53.100;6.686;2023-03-01T02:36:36;59.50;;;22.15;;
54683;SDS011;40582;53.100;6.686;2023-03-01T02:39:05;29.65;;;21.90;;
54683;SDS011;40582;53.100;6.686;2023-03-01T02:41:39;26.17;;;21.40;;
54683;SDS011;40582;53.100;6.686;2023-03-01T02:44:08;186.73;;;22.88;;
54683;SDS011;40582;53.100;6.686;2023-03-01T02:46:34;49.10;;;21.10;;
54683;SDS011;40582;53.100;6.686;2023-03-01T02:52:01;20.95;;;18.67;;
54683;SDS011;40582;53.100;6.686;2023-03-01T02:57:30;22.75;;;18.70;;
54683;SDS011;40582;53.100;6.686;2023-03-01T02:59:59;21.08;;;18.67;;
54683;SDS011;40582;53.100;6.686;2023-03-01T03:02:32;23.77;;;18.73;;
54683;SDS011;40582;53.100;6.686;2023-03-01T03:05:11;21.25;;;19.02;;
54683;SDS011;40582;53.100;6.686;2023-03-01T03:07:43;21.13;;;18.88;;
54683;SDS011;40582;53.100;6.686;2023-03-01T03:10:11;21.40;;;19.13;;
54683;SDS011;40582;53.100;6.686;2023-03-01T03:12:39;20.95;;;17.77;;
54683;SDS011;40582;53.100;6.686;2023-03-01T03:15:06;20.38;;;17.65;;
54683;SDS011;40582;53.100;6.686;2023-03-01T03:17:36;19.00;;;16.98;;
54683;SDS011;40582;53.100;6.686;2023-03-01T03:20:04;20.13;;;17.88;;
54683;SDS011;40582;53.100;6.686;2023-03-01T03:22:31;22.45;;;17.52;;
54683;SDS011;40582;53.100;6.686;2023-03-01T03:24:59;20.50;;;18.30;;
54683;SDS011;40582;53.100;6.686;2023-03-01T03:27:25;20.95;;;18.27;;
54683;SDS011;40582;53.100;6.686;2023-03-01T03:29:50;20.13;;;17.92;;
54683;SDS011;40582;53.100;6.686;2023-03-01T03:32:16;20.20;;;18.02;;
54683;SDS011;40582;53.100;6.686;2023-03-01T03:34:42;21.27;;;17.92;;
54683;SDS011;40582;53.100;6.686;2023-03-01T03:37:07;21.50;;;17.55;;
54683;SDS011;40582;53.100;6.686;2023-03-01T03:39:53;19.05;;;17.00;;
54683;SDS011;40582;53.100;6.686;2023-03-01T03:42:20;18.98;;;16.95;;
54683;SDS011;40582;53.100;6.686;2023-03-01T03:44:47;18.35;;;16.15;;
54683;SDS011;40582;53.100;6.686;2023-03-01T03:47:13;17.38;;;15.55;;
54683;SDS011;40582;53.100;6.686;2023-03-01T03:49:39;16.40;;;14.27;;
54683;SDS011;40582;53.100;6.686;2023-03-01T03:52:04;16.63;;;14.93;;
54683;SDS011;40582;53.100;6.686;2023-03-01T03:54:38;18.10;;;15.30;;
54683;SDS011;40582;53.100;6.686;2023-03-01T03:57:05;16.48;;;14.70;;
54683;SDS011;40582;53.100;6.686;2023-03-01T03:59:32;16.60;;;14.75;;
54683;SDS011;40582;53.100;6.686;2023-03-01T04:01:57;15.38;;;13.88;;
54683;SDS011;40582;53.100;6.686;2023-03-01T04:04:23;16.25;;;14.52;;
54683;SDS011;40582;53.100;6.686;2023-03-01T04:06:49;15.30;;;13.77;;
54683;SDS011;40582;53.100;6.686;2023-03-01T04:09:15;16.90;;;14.63;;
54683;SDS011;40582;53.100;6.686;2023-03-01T04:11:40;16.55;;;14.75;;
54683;SDS011;40582;53.100;6.686;2023-03-01T04:14:06;18.02;;;15.55;;
54683;SDS011;40582;53.100;6.686;2023-03-01T04:16:32;17.30;;;15.50;;
54683;SDS011;40582;53.100;6.686;2023-03-01T04:18:57;16.33;;;14.55;;
54683;SDS011;40582;53.100;6.686;2023-03-01T04:21:24;16.60;;;14.85;;
54683;SDS011;40582;53.100;6.686;2023-03-01T04:23:50;16.52;;;14.43;;
54683;SDS011;40582;53.100;6.686;2023-03-01T04:26:18;16.45;;;14.75;;
54683;SDS011;40582;53.100;6.686;2023-03-01T04:28:45;15.50;;;14.00;;
54683;SDS011;40582;53.100;6.686;2023-03-01T04:31:14;16.95;;;15.20;;
54683;SDS011;40582;53.100;6.686;2023-03-01T04:36:12;16.92;;;14.98;;
54683;SDS011;40582;53.100;6.686;2023-03-01T04:38:39;17.25;;;15.38;;
54683;SDS011;40582;53.100;6.686;2023-03-01T04:41:05;17.58;;;15.57;;
54683;SDS011;40582;53.100;6.686;2023-03-01T04:43:34;18.70;;;15.98;;
54683;SDS011;40582;53.100;6.686;2023-03-01T04:46:04;17.48;;;15.20;;
54683;SDS011;40582;53.100;6.686;2023-03-01T04:48:33;17.70;;;15.75;;
54683;SDS011;40582;53.100;6.686;2023-03-01T04:50:59;18.08;;;16.17;;
54683;SDS011;40582;53.100;6.686;2023-03-01T04:53:25;22.55;;;17.33;;
54683;SDS011;40582;53.100;6.686;2023-03-01T04:55:51;21.52;;;18.42;;
54683;SDS011;40582;53.100;6.686;2023-03-01T04:58:19;22.25;;;18.70;;
54683;SDS011;40582;53.100;6.686;2023-03-01T05:00:45;22.02;;;18.00;;
54683;SDS011;40582;53.100;6.686;2023-03-01T05:03:10;21.27;;;18.98;;
54683;SDS011;40582;53.100;6.686;2023-03-01T05:05:37;20.20;;;17.60;;
54683;SDS011;40582;53.100;6.686;2023-03-01T05:08:04;21.75;;;18.25;;
54683;SDS011;40582;53.100;6.686;2023-03-01T05:10:33;21.20;;;17.80;;
54683;SDS011;40582;53.100;6.686;2023-03-01T05:13:00;23.77;;;18.20;;
54683;SDS011;40582;53.100;6.686;2023-03-01T05:15:27;20.45;;;17.98;;
54683;SDS011;40582;53.100;6.686;2023-03-01T05:17:55;22.02;;;18.58;;
54683;SDS011;40582;53.100;6.686;2023-03-01T05:20:23;25.80;;;18.75;;
54683;SDS011;40582;53.100;6.686;2023-03-01T05:22:50;22.10;;;18.92;;
54683;SDS011;40582;53.100;6.686;2023-03-01T05:25:19;20.60;;;17.90;;
54683;SDS011;40582;53.100;6.686;2023-03-01T05:27:46;21.50;;;18.33;;
54683;SDS011;40582;53.100;6.686;2023-03-01T05:30:12;20.10;;;17.50;;
54683;SDS011;40582;53.100;6.686;2023-03-01T05:32:41;20.13;;;17.30;;
54683;SDS011;40582;53.100;6.686;2023-03-01T05:35:09;19.20;;;16.45;;
54683;SDS011;40582;53.100;6.686;2023-03-01T05:37:42;19.42;;;16.65;;
54683;SDS011;40582;53.100;6.686;2023-03-01T05:40:10;17.95;;;15.80;;
54683;SDS011;40582;53.100;6.686;2023-03-01T05:42:58;16.15;;;14.45;;
54683;SDS011;40582;53.100;6.686;2023-03-01T05:45:25;15.00;;;13.40;;
54683;SDS011;40582;53.100;6.686;2023-03-01T05:47:52;13.35;;;12.05;;
54683;SDS011;40582;53.100;6.686;2023-03-01T05:50:25;14.90;;;12.63;;
54683;SDS011;40582;53.100;6.686;2023-03-01T05:53:03;13.68;;;11.85;;
54683;SDS011;40582;53.100;6.686;2023-03-01T05:55:33;12.50;;;11.20;;
54683;SDS011;40582;53.100;6.686;2023-03-01T05:58:00;12.07;;;10.88;;
54683;SDS011;40582;53.100;6.686;2023-03-01T06:00:28;11.73;;;10.52;;
54683;SDS011;40582;53.100;6.686;2023-03-01T06:02:55;12.52;;;11.02;;
54683;SDS011;40582;53.100;6.686;2023-03-01T06:05:22;13.35;;;10.82;;
54683;SDS011;40582;53.100;6.686;2023-03-01T06:07:48;13.15;;;11.77;;
54683;SDS011;40582;53.100;6.686;2023-03-01T06:10:15;12.70;;;11.50;;
54683;SDS011;40582;53.100;6.686;2023-03-01T06:12:41;13.88;;;11.23;;
54683;SDS011;40582;53.100;6.686;2023-03-01T06:15:09;11.00;;;10.00;;
54683;SDS011;40582;53.100;6.686;2023-03-01T06:17:37;11.85;;;10.73;;
54683;SDS011;40582;53.100;6.686;2023-03-01T06:20:06;10.68;;;9.63;;
54683;SDS011;40582;53.100;6.686;2023-03-01T06:22:38;11.10;;;10.00;;
54683;SDS011;40582;53.100;6.686;2023-03-01T06:25:04;11.15;;;9.90;;
54683;SDS011;40582;53.100;6.686;2023-03-01T06:27:30;10.32;;;9.38;;
54683;SDS011;40582;53.100;6.686;2023-03-01T06:29:56;11.13;;;9.15;;
54683;SDS011;40582;53.100;6.686;2023-03-01T06:32:22;10.57;;;9.35;;
54683;SDS011;40582;53.100;6.686;2023-03-01T06:34:48;10.50;;;9.50;;
54683;SDS011;40582;53.100;6.686;2023-03-01T06:37:14;10.60;;;9.60;;
54683;SDS011;40582;53.100;6.686;2023-03-01T06:39:39;11.85;;;9.98;;
54683;SDS011;40582;53.100;6.686;2023-03-01T06:42:06;10.02;;;9.13;;
54683;SDS011;40582;53.100;6.686;2023-03-01T06:44:36;18.77;;;9.63;;
54683;SDS011;40582;53.100;6.686;2023-03-01T06:47:02;10.57;;;8.98;;
54683;SDS011;40582;53.100;6.686;2023-03-01T06:49:28;10.43;;;9.48;;
54683;SDS011;40582;53.100;6.686;2023-03-01T06:51:54;11.20;;;9.95;;
54683;SDS011;40582;53.100;6.686;2023-03-01T06:54:19;10.82;;;9.80;;
54683;SDS011;40582;53.100;6.686;2023-03-01T06:56:47;10.70;;;9.60;;
54683;SDS011;40582;53.100;6.686;2023-03-01T06:59:15;11.73;;;10.50;;
54683;SDS011;40582;53.100;6.686;2023-03-01T07:01:41;10.88;;;9.77;;
54683;SDS011;40582;53.100;6.686;2023-03-01T07:04:07;11.32;;;10.23;;
54683;SDS011;40582;53.100;6.686;2023-03-01T07:06:33;12.13;;;10.93;;
54683;SDS011;40582;53.100;6.686;2023-03-01T07:08:58;12.30;;;10.90;;
54683;SDS011;40582;53.100;6.686;2023-03-01T07:11:24;11.93;;;10.73;;
54683;SDS011;40582;53.100;6.686;2023-03-01T07:13:50;11.55;;;10.45;;
54683;SDS011;40582;53.100;6.686;2023-03-01T07:16:15;12.20;;;10.63;;
54683;SDS011;40582;53.100;6.686;2023-03-01T07:18:41;16.60;;;14.23;;
54683;SDS011;40582;53.100;6.686;2023-03-01T07:21:07;17.48;;;15.77;;
54683;SDS011;40582;53.100;6.686;2023-03-01T07:23:36;20.15;;;18.15;;
54683;SDS011;40582;53.100;6.686;2023-03-01T07:26:01;16.58;;;14.95;;
54683;SDS011;40582;53.100;6.686;2023-03-01T07:28:27;15.05;;;13.55;;
54683;SDS011;40582;53.100;6.686;2023-03-01T07:30:54;15.90;;;14.20;;
54683;SDS011;40582;53.100;6.686;2023-03-01T07:33:20;15.40;;;13.43;;
54683;SDS011;40582;53.100;6.686;2023-03-01T07:35:45;14.57;;;13.10;;
54683;SDS011;40582;53.100;6.686;2023-03-01T07:38:11;14.30;;;12.88;;
54683;SDS011;40582;53.100;6.686;2023-03-01T07:40:37;13.93;;;12.43;;
54683;SDS011;40582;53.100;6.686;2023-03-01T07:43:03;14.50;;;13.00;;
54683;SDS011;40582;53.100;6.686;2023-03-01T07:45:29;15.88;;;13.30;;
54683;SDS011;40582;53.100;6.686;2023-03-01T07:47:55;14.68;;;13.27;;
54683;SDS011;40582;53.100;6.686;2023-03-01T07:50:21;14.52;;;13.13;;
54683;SDS011;40582;53.100;6.686;2023-03-01T07:52:48;16.50;;;13.20;;
54683;SDS011;40582;53.100;6.686;2023-03-01T07:55:15;21.80;;;13.45;;
54683;SDS011;40582;53.100;6.686;2023-03-01T07:57:41;14.82;;;13.25;;
54683;SDS011;40582;53.100;6.686;2023-03-01T08:00:08;16.38;;;14.68;;
54683;SDS011;40582;53.100;6.686;2023-03-01T08:02:36;16.50;;;14.88;;
54683;SDS011;40582;53.100;6.686;2023-03-01T08:05:02;16.05;;;14.13;;
54683;SDS011;40582;53.100;6.686;2023-03-01T08:07:28;16.58;;;14.98;;
54683;SDS011;40582;53.100;6.686;2023-03-01T08:09:53;17.35;;;15.52;;
54683;SDS011;40582;53.100;6.686;2023-03-01T08:12:19;20.23;;;17.98;;
54683;SDS011;40582;53.100;6.686;2023-03-01T08:14:44;17.45;;;15.63;;
54683;SDS011;40582;53.100;6.686;2023-03-01T08:17:12;17.30;;;15.52;;
54683;SDS011;40582;53.100;6.686;2023-03-01T08:19:39;19.73;;;17.63;;
54683;SDS011;40582;53.100;6.686;2023-03-01T08:22:04;18.90;;;16.90;;
54683;SDS011;40582;53.100;6.686;2023-03-01T08:24:30;22.98;;;18.63;;
54683;SDS011;40582;53.100;6.686;2023-03-01T08:26:56;21.65;;;18.25;;
54683;SDS011;40582;53.100;6.686;2023-03-01T08:29:22;20.63;;;18.38;;
54683;SDS011;40582;53.100;6.686;2023-03-01T08:31:49;17.63;;;14.98;;
54683;SDS011;40582;53.100;6.686;2023-03-01T08:34:16;21.02;;;16.88;;
54683;SDS011;40582;53.100;6.686;2023-03-01T08:36:44;21.77;;;19.10;;
54683;SDS011;40582;53.100;6.686;2023-03-01T08:39:12;21.27;;;17.55;;
54683;SDS011;40582;53.100;6.686;2023-03-01T08:41:39;40.83;;;26.65;;
54683;SDS011;40582;53.100;6.686;2023-03-01T08:44:05;36.35;;;27.30;;
54683;SDS011;40582;53.100;6.686;2023-03-01T08:46:33;34.42;;;24.58;;
54683;SDS011;40582;53.100;6.686;2023-03-01T08:49:03;40.05;;;26.17;;
54683;SDS011;40582;53.100;6.686;2023-03-01T08:51:33;39.95;;;28.40;;
54683;SDS011;40582;53.100;6.686;2023-03-01T08:54:18;35.00;;;25.63;;
54683;SDS011;40582;53.100;6.686;2023-03-01T08:56:45;43.17;;;27.38;;
54683;SDS011;40582;53.100;6.686;2023-03-01T08:59:11;42.15;;;26.45;;
54683;SDS011;40582;53.100;6.686;2023-03-01T09:01:37;46.80;;;29.98;;
54683;SDS011;40582;53.100;6.686;2023-03-01T09:04:05;37.15;;;27.27;;
54683;SDS011;40582;53.100;6.686;2023-03-01T09:06:31;43.28;;;26.85;;
54683;SDS011;40582;53.100;6.686;2023-03-01T09:08:58;42.88;;;27.55;;
54683;SDS011;40582;53.100;6.686;2023-03-01T09:11:24;48.10;;;28.65;;
54683;SDS011;40582;53.100;6.686;2023-03-01T09:13:50;50.47;;;31.50;;
54683;SDS011;40582;53.100;6.686;2023-03-01T09:16:17;42.53;;;28.75;;
54683;SDS011;40582;53.100;6.686;2023-03-01T09:18:45;53.72;;;32.90;;
54683;SDS011;40582;53.100;6.686;2023-03-01T09:21:14;48.20;;;30.08;;
54683;SDS011;40582;53.100;6.686;2023-03-01T09:23:42;39.55;;;27.27;;
54683;SDS011;40582;53.100;6.686;2023-03-01T09:26:10;40.80;;;28.00;;
54683;SDS011;40582;53.100;6.686;2023-03-01T09:28:37;40.97;;;28.23;;
54683;SDS011;40582;53.100;6.686;2023-03-01T09:31:03;39.60;;;28.45;;
54683;SDS011;40582;53.100;6.686;2023-03-01T09:33:30;44.88;;;29.92;;
54683;SDS011;40582;53.100;6.686;2023-03-01T09:36:04;42.30;;;27.77;;
54683;SDS011;40582;53.100;6.686;2023-03-01T09:38:32;42.92;;;30.98;;
54683;SDS011;40582;53.100;6.686;2023-03-01T09:40:58;43.53;;;31.25;;
54683;SDS011;40582;53.100;6.686;2023-03-01T09:43:35;44.92;;;29.98;;
54683;SDS011;40582;53.100;6.686;2023-03-01T09:46:08;45.10;;;31.10;;
54683;SDS011;40582;53.100;6.686;2023-03-01T09:48:58;47.15;;;31.35;;
54683;SDS011;40582;53.100;6.686;2023-03-01T09:51:31;58.45;;;42.10;;
54683;SDS011;40582;53.100;6.686;2023-03-01T09:53:58;69.93;;;48.13;;
54683;SDS011;40582;53.100;6.686;2023-03-01T09:56:29;64.15;;;48.33;;
54683;SDS011;40582;53.100;6.686;2023-03-01T10:01:40;63.17;;;44.40;;
54683;SDS011;40582;53.100;6.686;2023-03-01T10:07:21;54.92;;;39.30;;
54683;SDS011;40582;53.100;6.686;2023-03-01T10:09:49;58.70;;;39.03;;
54683;SDS011;40582;53.100;6.686;2023-03-01T10:12:19;56.33;;;39.28;;
54683;SDS011;40582;53.100;6.686;2023-03-01T10:22:48;49.22;;;33.35;;
54683;SDS011;40582;53.100;6.686;2023-03-01T10:28:26;46.83;;;33.53;;
54683;SDS011;40582;53.100;6.686;2023-03-01T10:30:55;45.13;;;33.88;;
54683;SDS011;40582;53.100;6.686;2023-03-01T10:35:50;41.97;;;32.20;;
54683;SDS011;40582;53.100;6.686;2023-03-01T10:38:16;44.70;;;32.00;;
54683;SDS011;40582;53.100;6.686;2023-03-01T10:40:52;40.47;;;29.30;;
54683;SDS011;40582;53.100;6.686;2023-03-01T10:43:46;36.60;;;27.88;;
54683;SDS011;40582;53.100;6.686;2023-03-01T10:49:05;38.92;;;29.40;;
54683;SDS011;40582;53.100;6.686;2023-03-01T10:51:41;37.58;;;26.08;;
54683;SDS011;40582;53.100;6.686;2023-03-01T10:54:17;33.97;;;25.98;;
54683;SDS011;40582;53.100;6.686;2023-03-01T10:56:58;33.00;;;22.95;;
54683;SDS011;40582;53.100;6.686;2023-03-01T10:59:30;39.58;;;22.13;;
54683;SDS011;40582;53.100;6.686;2023-03-01T11:04:34;25.80;;;19.13;;
54683;SDS011;40582;53.100;6.686;2023-03-01T11:07:00;25.30;;;18.10;;
54683;SDS011;40582;53.100;6.686;2023-03-01T11:09:30;23.33;;;17.55;;
54683;SDS011;40582;53.100;6.686;2023-03-01T11:12:03;25.30;;;16.60;;
54683;SDS011;40582;53.100;6.686;2023-03-01T11:14:35;22.25;;;16.27;;
54683;SDS011;40582;53.100;6.686;2023-03-01T11:19:31;21.98;;;15.43;;
54683;SDS011;40582;53.100;6.686;2023-03-01T11:24:45;16.40;;;13.10;;
54683;SDS011;40582;53.100;6.686;2023-03-01T11:27:17;19.13;;;14.18;;
54683;SDS011;40582;53.100;6.686;2023-03-01T11:30:03;22.50;;;15.25;;
54683;SDS011;40582;53.100;6.686;2023-03-01T11:32:42;22.20;;;14.95;;
54683;SDS011;40582;53.100;6.686;2023-03-01T11:35:22;21.08;;;16.00;;
54683;SDS011;40582;53.100;6.686;2023-03-01T11:51:41;18.50;;;14.55;;
54683;SDS011;40582;53.100;6.686;2023-03-01T11:57:12;19.13;;;15.35;;
54683;SDS011;40582;53.100;6.686;2023-03-01T12:22:10;21.45;;;14.40;;
54683;SDS011;40582;53.100;6.686;2023-03-01T12:24:57;20.20;;;14.32;;
54683;SDS011;40582;53.100;6.686;2023-03-01T12:30:41;19.52;;;14.43;;
54683;SDS011;40582;53.100;6.686;2023-03-01T12:43:46;22.60;;;15.90;;
54683;SDS011;40582;53.100;6.686;2023-03-01T12:49:22;20.50;;;15.77;;
54683;SDS011;40582;53.100;6.686;2023-03-01T12:52:03;23.15;;;14.13;;
54683;SDS011;40582;53.100;6.686;2023-03-01T12:54:47;20.92;;;15.38;;
54683;SDS011;40582;53.100;6.686;2023-03-01T12:57:27;24.92;;;14.93;;
54683;SDS011;40582;53.100;6.686;2023-03-01T13:00:08;19.38;;;15.52;;
54683;SDS011;40582;53.100;6.686;2023-03-01T13:02:52;19.88;;;15.73;;
54683;SDS011;40582;53.100;6.686;2023-03-01T13:11:03;21.15;;;16.02;;
54683;SDS011;40582;53.100;6.686;2023-03-01T13:13:31;20.17;;;15.95;;
54683;SDS011;40582;53.100;6.686;2023-03-01T13:15:57;23.60;;;17.13;;
54683;SDS011;40582;53.100;6.686;2023-03-01T13:21:08;20.67;;;16.80;;
54683;SDS011;40582;53.100;6.686;2023-03-01T13:23:35;26.40;;;16.10;;
54683;SDS011;40582;53.100;6.686;2023-03-01T13:26:07;25.65;;;17.88;;
54683;SDS011;40582;53.100;6.686;2023-03-01T13:33:42;28.48;;;16.65;;
54683;SDS011;40582;53.100;6.686;2023-03-01T13:36:09;21.27;;;15.93;;
54683;SDS011;40582;53.100;6.686;2023-03-01T13:44:26;23.55;;;17.77;;
54683;SDS011;40582;53.100;6.686;2023-03-01T13:49:42;24.20;;;18.48;;
54683;SDS011;40582;53.100;6.686;2023-03-01T13:55:14;24.75;;;18.20;;
54683;SDS011;40582;53.100;6.686;2023-03-01T13:58:01;25.92;;;18.13;;
54683;SDS011;40582;53.100;6.686;2023-03-01T14:00:38;29.67;;;18.27;;
54683;SDS011;40582;53.100;6.686;2023-03-01T14:03:08;20.00;;;16.13;;
54683;SDS011;40582;53.100;6.686;2023-03-01T14:05:36;23.33;;;16.52;;
54683;SDS011;40582;53.100;6.686;2023-03-01T14:08:03;22.77;;;17.65;;
54683;SDS011;40582;53.100;6.686;2023-03-01T14:16:24;26.50;;;18.17;;
54683;SDS011;40582;53.100;6.686;2023-03-01T14:19:15;26.85;;;20.17;;
54683;SDS011;40582;53.100;6.686;2023-03-01T14:21:45;25.75;;;18.85;;
54683;SDS011;40582;53.100;6.686;2023-03-01T14:24:21;25.70;;;18.90;;
54683;SDS011;40582;53.100;6.686;2023-03-01T14:26:49;28.50;;;20.65;;
54683;SDS011;40582;53.100;6.686;2023-03-01T14:29:32;28.05;;;19.55;;
54683;SDS011;40582;53.100;6.686;2023-03-01T14:34:35;26.45;;;19.40;;
54683;SDS011;40582;53.100;6.686;2023-03-01T14:39:58;25.27;;;18.80;;
54683;SDS011;40582;53.100;6.686;2023-03-01T14:42:29;29.45;;;20.20;;
54683;SDS011;40582;53.100;6.686;2023-03-01T14:44:59;26.92;;;19.95;;
54683;SDS011;40582;53.100;6.686;2023-03-01T14:47:31;23.90;;;18.85;;
54683;SDS011;40582;53.100;6.686;2023-03-01T14:50:03;27.60;;;18.98;;
54683;SDS011;40582;53.100;6.686;2023-03-01T14:52:34;29.73;;;19.48;;
54683;SDS011;40582;53.100;6.686;2023-03-01T14:55:03;26.35;;;19.00;;
54683;SDS011;40582;53.100;6.686;2023-03-01T14:57:31;26.90;;;19.73;;
54683;SDS011;40582;53.100;6.686;2023-03-01T14:59:58;24.05;;;18.80;;
54683;SDS011;40582;53.100;6.686;2023-03-01T15:02:29;29.90;;;20.55;;
54683;SDS011;40582;53.100;6.686;2023-03-01T15:04:56;33.63;;;20.10;;
54683;SDS011;40582;53.100;6.686;2023-03-01T15:07:32;26.70;;;19.77;;
54683;SDS011;40582;53.100;6.686;2023-03-01T15:10:02;27.40;;;18.88;;
54683;SDS011;40582;53.100;6.686;2023-03-01T15:15:19;25.65;;;19.23;;
54683;SDS011;40582;53.100;6.686;2023-03-01T15:18:11;28.85;;;19.30;;
54683;SDS011;40582;53.100;6.686;2023-03-01T15:20:51;27.08;;;19.38;;
54683;SDS011;40582;53.100;6.686;2023-03-01T15:23:19;27.35;;;20.50;;
54683;SDS011;40582;53.100;6.686;2023-03-01T15:25:51;30.25;;;19.92;;
54683;SDS011;40582;53.100;6.686;2023-03-01T15:28:25;26.17;;;19.00;;
54683;SDS011;40582;53.100;6.686;2023-03-01T15:30:57;28.92;;;20.17;;
54683;SDS011;40582;53.100;6.686;2023-03-01T15:33:31;29.48;;;20.00;;
54683;SDS011;40582;53.100;6.686;2023-03-01T15:36:03;26.63;;;20.67;;
54683;SDS011;40582;53.100;6.686;2023-03-01T15:41:24;28.27;;;20.42;;
54683;SDS011;40582;53.100;6.686;2023-03-01T15:44:00;26.38;;;20.08;;
54683;SDS011;40582;53.100;6.686;2023-03-01T15:46:40;26.33;;;20.55;;
54683;SDS011;40582;53.100;6.686;2023-03-01T15:52:13;27.85;;;20.48;;
54683;SDS011;40582;53.100;6.686;2023-03-01T15:54:46;25.48;;;19.52;;
54683;SDS011;40582;53.100;6.686;2023-03-01T15:57:12;29.35;;;20.38;;
54683;SDS011;40582;53.100;6.686;2023-03-01T15:59:41;28.42;;;20.35;;
54683;SDS011;40582;53.100;6.686;2023-03-01T16:02:12;25.95;;;20.38;;
54683;SDS011;40582;53.100;6.686;2023-03-01T16:04:39;26.45;;;20.38;;
54683;SDS011;40582;53.100;6.686;2023-03-01T16:07:05;26.55;;;20.25;;
54683;SDS011;40582;53.100;6.686;2023-03-01T16:09:31;26.80;;;19.90;;
54683;SDS011;40582;53.100;6.686;2023-03-01T16:11:57;28.77;;;20.52;;
54683;SDS011;40582;53.100;6.686;2023-03-01T16:14:23;27.42;;;20.00;;
54683;SDS011;40582;53.100;6.686;2023-03-01T16:16:49;29.73;;;20.48;;
54683;SDS011;40582;53.100;6.686;2023-03-01T16:19:14;29.50;;;22.63;;
54683;SDS011;40582;53.100;6.686;2023-03-01T16:21:41;28.77;;;21.83;;
54683;SDS011;40582;53.100;6.686;2023-03-01T16:24:09;27.45;;;21.63;;
54683;SDS011;40582;53.100;6.686;2023-03-01T16:26:36;34.55;;;24.23;;
54683;SDS011;40582;53.100;6.686;2023-03-01T16:29:02;30.20;;;22.92;;
54683;SDS011;40582;53.100;6.686;2023-03-01T16:31:29;33.33;;;23.02;;
54683;SDS011;40582;53.100;6.686;2023-03-01T16:33:56;30.67;;;23.15;;
54683;SDS011;40582;53.100;6.686;2023-03-01T16:36:24;28.92;;;20.95;;
54683;SDS011;40582;53.100;6.686;2023-03-01T16:38:51;28.42;;;20.20;;
54683;SDS011;40582;53.100;6.686;2023-03-01T16:41:19;29.77;;;19.15;;
54683;SDS011;40582;53.100;6.686;2023-03-01T16:43:46;24.48;;;19.33;;
54683;SDS011;40582;53.100;6.686;2023-03-01T16:46:13;26.75;;;19.92;;
54683;SDS011;40582;53.100;6.686;2023-03-01T16:48:44;28.13;;;19.55;;
54683;SDS011;40582;53.100;6.686;2023-03-01T16:51:11;23.90;;;18.23;;
54683;SDS011;40582;53.100;6.686;2023-03-01T16:53:37;24.88;;;19.60;;
54683;SDS011;40582;53.100;6.686;2023-03-01T16:56:04;28.67;;;19.33;;